Time;durP1;ratioP1;P1;durP2;ratioP2;P2;SDS_P1;SDS_P2;PMS_P1;PMS_P2;Temp;Humidity;BMP_temperature;BMP_pressure;BME280_temperature;BME280_humidity;BME280_pressure;Samples;Min_cycle;Max_cycle;Signal;HPM_P1;HPM_P2
2023/07/12 00:01:17;;;;;;;4.80;1.88;;;;;;;20.07;78.22;100790.56;5055409;28;20060;-49
2023/07/12 00:03:43;;;;;;;4.40;1.70;;;;;;;20.10;77.66;100787.50;5063214;28;20032;-50
2023/07/12 00:06:16;;;;;;;3.75;1.73;;;;;;;20.10;78.18;100784.78;5057800;28;20025;-51
2023/07/12 00:08:42;;;;;;;5.05;1.58;;;;;;;20.05;78.36;100790.75;5062081;28;20385;-49
2023/07/12 00:11:16;;;;;;;2.00;1.40;;;;;;;20.02;78.78;100785.72;5061270;28;20032;-49
2023/07/12 00:13:41;;;;;;;2.45;1.90;;;;;;;20.02;78.99;100796.50;5061134;28;20041;-49
2023/07/12 00:16:20;;;;;;;5.47;2.08;;;;;;;19.99;79.32;100809.50;5060321;28;20090;-51
2023/07/12 00:18:46;;;;;;;3.38;1.63;;;;;;;19.98;79.49;100822.13;5057946;28;20029;-50
2023/07/12 00:21:12;;;;;;;2.47;1.80;;;;;;;19.93;79.50;100836.16;5061350;28;20030;-49
2023/07/12 00:23:38;;;;;;;4.45;1.80;;;;;;;19.89;79.04;100836.69;5060461;28;20482;-49
2023/07/12 00:26:24;;;;;;;7.22;1.83;;;;;;;19.92;78.68;100830.97;5058198;28;20036;-49
2023/07/12 00:28:50;;;;;;;3.05;2.28;;;;;;;19.89;79.77;100840.22;5058253;28;20077;-49
2023/07/12 00:31:15;;;;;;;3.17;1.92;;;;;;;19.81;80.59;100850.22;5058568;28;20492;-49
2023/07/12 00:33:40;;;;;;;3.45;2.28;;;;;;;19.74;81.73;100845.50;5059516;28;20029;-50
2023/07/12 00:36:12;;;;;;;3.67;2.63;;;;;;;19.72;80.14;100862.88;5059260;28;20025;-50
2023/07/12 00:38:38;;;;;;;3.97;2.60;;;;;;;19.67;81.04;100862.56;5057703;28;20078;-49
2023/07/12 00:41:31;;;;;;;4.75;2.65;;;;;;;19.64;80.35;100869.16;5058579;28;20032;-50
2023/07/12 00:44:10;;;;;;;4.18;2.35;;;;;;;19.63;80.30;100866.63;5056706;28;20569;-49
2023/07/12 00:46:40;;;;;;;5.05;2.28;;;;;;;19.55;81.11;100870.19;5060350;28;20195;-49
2023/07/12 00:49:09;;;;;;;6.03;2.65;;;;;;;19.45;80.43;100867.75;5058987;28;20113;-49
2023/07/12 00:51:59;;;;;;;7.65;3.00;;;;;;;19.48;79.92;100872.75;5057388;28;20485;-50
2023/07/12 00:54:26;;;;;;;5.47;2.50;;;;;;;19.38;79.38;100882.91;5059478;28;20044;-50
2023/07/12 00:56:52;;;;;;;3.17;2.88;;;;;;;19.39;80.70;100871.13;5055918;28;20032;-49
2023/07/12 00:59:22;;;;;;;6.53;3.10;;;;;;;19.31;81.29;100873.84;5056303;28;20032;-49
2023/07/12 01:01:54;;;;;;;5.82;3.08;;;;;;;19.28;81.08;100898.44;5061311;28;20078;-49
2023/07/12 01:04:24;;;;;;;6.80;2.90;;;;;;;19.25;79.68;100904.16;5056343;28;20111;-50
2023/07/12 01:06:50;;;;;;;6.20;3.55;;;;;;;19.21;80.99;100890.22;5056988;28;20024;-49
2023/07/12 01:09:17;;;;;;;5.03;3.00;;;;;;;19.19;80.47;100924.53;5059891;28;20390;-50
2023/07/12 01:11:42;;;;;;;6.65;3.50;;;;;;;19.15;80.82;100925.88;5059419;28;20068;-50
2023/07/12 01:14:16;;;;;;;5.82;3.17;;;;;;;19.11;81.96;100847.31;5060600;28;20033;-49
2023/07/12 01:16:45;;;;;;;7.15;3.00;;;;;;;19.08;80.74;100861.13;5055744;28;20136;-49
2023/07/12 01:19:11;;;;;;;;;;;;;;;19.20;78.17;100866.97;5060618;28;20028;-49
2023/07/12 01:21:40;;;;;;;7.65;3.20;;;;;;;18.98;81.42;100855.94;5056701;28;20049;-49
2023/07/12 01:24:06;;;;;;;6.25;3.42;;;;;;;18.97;82.06;100861.53;5058521;28;20052;-50
2023/07/12 01:26:47;;;;;;;7.68;3.28;;;;;;;18.96;81.12;100857.13;5056781;28;20493;-50
2023/07/12 01:29:13;;;;;;;8.52;3.40;;;;;;;18.93;82.80;100879.84;5058401;28;20024;-50
2023/07/12 01:31:40;;;;;;;8.02;3.90;;;;;;;18.89;84.26;100880.38;5056991;28;20377;-50
2023/07/12 01:34:07;;;;;;;8.88;3.88;;;;;;;18.84;87.50;100856.66;5057362;28;20045;-50
2023/07/12 01:36:32;;;;;;;6.10;3.80;;;;;;;18.75;87.07;100857.66;5059675;28;20111;-51
2023/07/12 01:39:00;;;;;;;5.10;3.50;;;;;;;18.68;87.01;100874.50;5051841;28;20104;-50
2023/07/12 01:41:26;;;;;;;7.70;3.37;;;;;;;18.59;87.48;100870.13;5063340;28;20017;-50
2023/07/12 01:43:52;;;;;;;6.97;3.63;;;;;;;18.57;88.52;100857.84;5057164;28;20398;-49
2023/07/12 01:46:18;;;;;;;8.77;3.58;;;;;;;18.50;88.03;100836.16;5061169;28;20055;-50
2023/07/12 01:48:44;;;;;;;7.38;3.20;;;;;;;18.49;87.80;100824.56;5059871;28;20420;-50
2023/07/12 01:51:10;;;;;;;6.88;3.47;;;;;;;18.55;88.12;100820.38;5062165;28;20473;-51
2023/07/12 01:53:35;;;;;;;6.45;3.42;;;;;;;18.52;88.66;100838.66;5060134;28;20029;-49
2023/07/12 01:56:03;;;;;;;5.93;3.33;;;;;;;18.55;88.44;100836.50;5062172;28;20106;-50
2023/07/12 01:58:29;;;;;;;7.82;3.67;;;;;;;18.50;90.55;100830.78;5059328;28;20111;-50
2023/07/12 02:00:56;;;;;;;7.32;3.35;;;;;;;18.48;90.27;100824.72;5058919;28;20043;-49
2023/07/12 02:03:22;;;;;;;11.68;3.42;;;;;;;18.44;89.57;100824.22;5058631;28;20033;-50
2023/07/12 02:05:47;;;;;;;7.63;3.30;;;;;;;18.38;89.80;100845.59;5062043;28;20590;-52
2023/07/12 02:08:13;;;;;;;6.75;3.53;;;;;;;18.31;88.71;100818.53;5060111;28;20483;-50
2023/07/12 02:10:38;;;;;;;6.95;3.80;;;;;;;18.19;89.01;100782.25;5060367;28;20099;-50
2023/07/12 02:13:04;;;;;;;10.30;3.90;;;;;;;18.03;89.23;100794.66;5062964;28;20090;-50
2023/07/12 02:15:29;;;;;;;8.85;3.58;;;;;;;17.99;89.50;100865.91;5063753;28;20032;-50
2023/07/12 02:17:55;;;;;;;8.35;3.90;;;;;;;17.94;90.81;100866.38;5067463;28;20094;-51
2023/07/12 02:20:21;;;;;;;7.85;3.85;;;;;;;18.01;92.12;100877.31;5060695;28;20039;-50
2023/07/12 02:22:47;;;;;;;6.35;3.55;;;;;;;18.06;91.78;100877.66;5064673;28;20025;-51
2023/07/12 02:25:13;;;;;;;5.38;3.30;;;;;;;18.01;92.46;100879.16;5060273;28;20036;-52
2023/07/12 02:27:40;;;;;;;7.22;2.95;;;;;;;17.91;91.81;100873.94;5060466;28;20025;-50
2023/07/12 02:30:09;;;;;;;5.85;3.33;;;;;;;17.91;92.78;100842.53;5063081;28;20424;-50
2023/07/12 02:32:34;;;;;;;4.93;3.03;;;;;;;17.92;90.87;100840.69;5062636;28;20176;-49
2023/07/12 02:34:59;;;;;;;5.13;2.90;;;;;;;17.88;91.15;100850.91;5062881;28;20068;-50
2023/07/12 02:37:24;;;;;;;5.00;3.05;;;;;;;17.84;92.13;100849.56;5059875;28;20436;-49
2023/07/12 02:39:50;;;;;;;8.40;3.20;;;;;;;17.86;93.19;100839.47;5061658;28;20028;-52
2023/07/12 02:42:15;;;;;;;7.88;3.42;;;;;;;17.85;92.37;100864.69;5057819;28;20401;-51
2023/07/12 02:44:41;;;;;;;5.45;2.78;;;;;;;17.78;92.42;100863.63;5064700;28;20028;-50
2023/07/12 02:47:07;;;;;;;7.10;2.92;;;;;;;17.79;93.56;100849.19;5057995;28;20028;-50
2023/07/12 02:49:33;;;;;;;6.85;2.70;;;;;;;17.76;91.67;100853.03;5060203;28;20029;-50
2023/07/12 02:51:58;;;;;;;7.38;2.80;;;;;;;17.67;92.33;100850.50;5058859;28;20047;-50
2023/07/12 02:54:23;;;;;;;7.00;3.10;;;;;;;17.65;91.85;100853.38;5062499;28;20385;-50
2023/07/12 02:56:49;;;;;;;3.72;2.53;;;;;;;17.61;92.06;100857.38;5063059;28;20473;-50
2023/07/12 02:59:14;;;;;;;5.07;2.47;;;;;;;17.61;92.99;100857.38;5061373;28;20062;-50
2023/07/12 03:01:40;;;;;;;4.57;2.65;;;;;;;17.61;92.95;100856.53;5059667;28;20442;-50
2023/07/12 03:04:05;;;;;;;5.82;2.60;;;;;;;17.55;91.74;100856.19;5062774;28;20037;-50
2023/07/12 03:06:31;;;;;;;5.93;2.72;;;;;;;17.57;92.04;100864.09;5058035;28;20090;-51
2023/07/12 03:08:56;;;;;;;6.25;2.80;;;;;;;17.55;93.45;100869.63;5057637;28;20016;-50
2023/07/12 03:11:21;;;;;;;4.85;2.67;;;;;;;17.56;91.80;100871.28;5060971;28;20539;-50
2023/07/12 03:13:49;;;;;;;6.70;2.63;;;;;;;17.54;92.70;100872.47;5061860;28;20024;-53
2023/07/12 03:16:14;;;;;;;8.13;2.80;;;;;;;17.53;93.88;100871.59;5061484;28;20025;-51
2023/07/12 03:18:40;;;;;;;6.57;2.47;;;;;;;17.45;93.54;100868.06;5060047;28;20029;-51
2023/07/12 03:21:06;;;;;;;5.63;2.53;;;;;;;17.44;93.78;100882.50;5060358;28;20084;-52
2023/07/12 03:23:33;;;;;;;6.80;2.63;;;;;;;17.46;94.72;100864.38;5059043;28;20448;-50
2023/07/12 03:25:58;;;;;;;4.00;2.30;;;;;;;17.41;94.27;100866.72;5062667;28;20070;-50
2023/07/12 03:28:24;;;;;;;3.72;2.58;;;;;;;17.39;94.65;100869.56;5062682;28;20036;-50
2023/07/12 03:31:04;;;;;;;6.03;2.30;;;;;;;17.36;94.66;100877.94;5059224;28;20114;-50
2023/07/12 03:33:30;;;;;;;3.10;2.40;;;;;;;17.26;94.39;100882.59;5059981;28;20029;-50
2023/07/12 03:35:56;;;;;;;4.38;2.35;;;;;;;17.24;94.28;100887.28;5059439;28;20036;-50
2023/07/12 03:38:25;;;;;;;3.53;2.42;;;;;;;17.21;95.85;100893.81;5059072;28;20821;-50
2023/07/12 03:40:51;;;;;;;3.90;2.47;;;;;;;17.18;95.12;100899.47;5060550;28;20028;-50
2023/07/12 03:43:17;;;;;;;6.93;3.08;;;;;;;17.14;95.50;100898.13;5059430;28;20025;-49
2023/07/12 03:45:43;;;;;;;5.22;2.78;;;;;;;17.06;96.06;100898.91;5058077;28;20029;-50
2023/07/12 03:48:09;;;;;;;5.38;2.90;;;;;;;17.06;95.57;100900.78;5060176;28;20398;-53
2023/07/12 03:50:40;;;;;;;5.78;3.30;;;;;;;17.06;96.42;100898.91;5060623;28;20033;-50
2023/07/12 03:53:06;;;;;;;4.75;2.58;;;;;;;17.08;95.10;100907.66;5059940;28;20035;-50
2023/07/12 03:55:31;;;;;;;5.97;2.97;;;;;;;17.04;96.86;100900.91;5055655;28;20025;-50
2023/07/12 03:57:57;;;;;;;5.70;2.83;;;;;;;17.05;96.08;100907.94;5059942;28;20020;-51
2023/07/12 04:00:22;;;;;;;4.30;3.10;;;;;;;16.99;96.51;100904.06;5058823;28;20032;-50
2023/07/12 04:02:47;;;;;;;6.22;3.15;;;;;;;16.98;95.22;100914.97;5061127;28;20025;-50
2023/07/12 04:05:13;;;;;;;6.95;3.40;;;;;;;16.98;95.40;100923.00;5058542;28;20112;-50
2023/07/12 04:07:38;;;;;;;7.35;3.15;;;;;;;16.95;94.96;100909.91;5062822;28;20044;-50
2023/07/12 04:10:04;;;;;;;8.63;3.17;;;;;;;16.93;95.86;100920.78;5057838;28;20028;-50
2023/07/12 04:12:30;;;;;;;6.45;2.83;;;;;;;16.90;95.61;100914.91;5061109;28;20424;-50
2023/07/12 04:14:57;;;;;;;5.75;3.33;;;;;;;16.86;95.29;100924.28;5058155;28;20132;-50
2023/07/12 04:17:22;;;;;;;9.10;3.80;;;;;;;16.83;96.27;100922.72;5063501;28;20016;-50
2023/07/12 04:19:47;;;;;;;9.90;3.50;;;;;;;16.82;96.21;100921.03;5057309;28;20025;-50
2023/07/12 04:22:13;;;;;;;6.93;3.53;;;;;;;16.80;96.55;100920.34;5058137;28;20536;-49
2023/07/12 04:24:38;;;;;;;7.63;4.03;;;;;;;16.81;97.36;100916.66;5059365;28;20052;-50
2023/07/12 04:27:04;;;;;;;7.68;3.22;;;;;;;16.81;96.90;100928.22;5059966;28;20032;-49
2023/07/12 04:29:29;;;;;;;6.80;3.47;;;;;;;16.82;96.27;100919.19;5056919;28;20488;-51
2023/07/12 04:31:55;;;;;;;6.20;3.33;;;;;;;16.83;97.38;100917.34;5062652;28;20165;-50
2023/07/12 04:34:20;;;;;;;8.05;3.63;;;;;;;16.81;96.74;100919.34;5059494;28;20394;-50
2023/07/12 04:36:45;;;;;;;7.00;2.90;;;;;;;16.82;95.56;100924.56;5058834;28;20056;-50
2023/07/12 04:39:11;;;;;;;6.85;2.83;;;;;;;16.83;97.45;100928.06;5057067;28;20112;-50
2023/07/12 04:41:36;;;;;;;6.30;2.85;;;;;;;16.82;96.28;100913.81;5060100;28;20171;-50
2023/07/12 04:44:02;;;;;;;9.23;2.72;;;;;;;16.83;97.38;100920.03;5056966;28;20029;-50
2023/07/12 04:46:28;;;;;;;6.72;3.00;;;;;;;16.81;97.62;100912.13;5060023;28;20013;-49
2023/07/12 04:48:53;;;;;;;7.78;2.83;;;;;;;16.78;96.80;100917.81;5054475;28;20032;-49
2023/07/12 04:51:19;;;;;;;6.22;2.78;;;;;;;16.80;97.65;100925.69;5058881;28;20071;-50
2023/07/12 04:53:47;;;;;;;8.57;3.00;;;;;;;16.79;96.74;100919.50;5056397;28;20100;-50
2023/07/12 04:56:16;;;;;;;7.85;2.70;;;;;;;16.80;96.56;100918.50;5062058;28;20044;-49
2023/07/12 04:58:42;;;;;;;9.52;2.85;;;;;;;16.87;97.46;100917.91;5059010;28;20028;-50
2023/07/12 05:01:09;;;;;;;6.78;2.58;;;;;;;16.89;97.42;100922.13;5063138;28;20037;-50
2023/07/12 05:03:34;;;;;;;6.47;2.78;;;;;;;16.99;98.19;100927.38;5055962;28;20020;-50
2023/07/12 05:06:00;;;;;;;6.00;2.75;;;;;;;17.02;96.60;100932.44;5056481;28;20036;-50
2023/07/12 05:08:25;;;;;;;7.88;2.72;;;;;;;17.10;97.41;100929.81;5060250;28;20028;-50
2023/07/12 05:10:50;;;;;;;5.70;2.75;;;;;;;17.13;96.24;100940.22;5059889;28;20461;-50
2023/07/12 05:13:16;;;;;;;8.30;2.75;;;;;;;17.23;97.62;100939.28;5056863;28;20021;-50
2023/07/12 05:15:50;;;;;;;6.25;2.92;;;;;;;17.25;96.78;100934.59;5058441;28;20378;-50
2023/07/12 05:18:15;;;;;;;4.95;2.70;;;;;;;17.28;94.86;100943.16;5062479;28;20077;-53
2023/07/12 05:20:40;;;;;;;6.18;2.75;;;;;;;17.36;96.13;100940.50;5063185;28;20020;-51
2023/07/12 05:23:06;;;;;;;7.18;2.65;;;;;;;17.36;95.65;100945.06;5061606;28;20486;-50
2023/07/12 05:25:31;;;;;;;7.97;2.65;;;;;;;17.38;95.81;100953.78;5064133;28;20021;-50
2023/07/12 05:27:56;;;;;;;5.95;2.88;;;;;;;17.35;94.71;100954.09;5067279;28;20496;-50
2023/07/12 05:30:22;;;;;;;9.63;2.97;;;;;;;17.35;95.14;100965.69;5065415;28;20059;-52
2023/07/12 05:32:47;;;;;;;8.57;3.10;;;;;;;17.33;94.31;100953.41;5058062;28;20592;-50
2023/07/12 05:35:12;;;;;;;5.75;2.55;;;;;;;17.34;93.65;100949.75;5065354;28;20024;-52
2023/07/12 05:37:38;;;;;;;7.18;2.90;;;;;;;17.39;95.25;100958.16;5062769;28;20017;-51
2023/07/12 05:40:05;;;;;;;8.63;3.20;;;;;;;17.57;95.62;100964.28;5066550;28;20025;-51
2023/07/12 05:42:30;;;;;;;5.97;2.67;;;;;;;17.62;93.38;100961.13;5058765;28;20032;-50
2023/07/12 05:44:56;;;;;;;6.30;2.85;;;;;;;17.71;95.01;100956.63;5057460;28;20040;-51
2023/07/12 05:47:21;;;;;;;7.47;2.42;;;;;;;17.87;94.34;100959.41;5058616;28;20029;-50
2023/07/12 05:49:46;;;;;;;8.43;2.85;;;;;;;17.99;92.11;100959.97;5060062;28;20462;-50
2023/07/12 05:52:12;;;;;;;8.38;2.92;;;;;;;18.09;92.66;100957.13;5061466;28;20123;-53
2023/07/12 05:54:37;;;;;;;9.80;2.95;;;;;;;18.26;91.93;100958.00;5060448;28;20028;-50
2023/07/12 05:57:02;;;;;;;7.82;2.50;;;;;;;18.45;91.37;100952.31;5059331;28;20025;-51
2023/07/12 05:59:29;;;;;;;9.55;2.83;;;;;;;18.60;90.42;100954.34;5058987;28;20041;-52
2023/07/12 06:01:54;;;;;;;5.80;2.30;;;;;;;18.74;88.47;100969.81;5061086;28;20155;-51
2023/07/12 06:04:19;;;;;;;8.82;3.13;;;;;;;18.90;87.81;100977.09;5061195;28;20557;-51
2023/07/12 06:06:45;;;;;;;10.77;2.80;;;;;;;19.03;87.77;100977.41;5061143;28;20580;-51
2023/07/12 06:09:10;;;;;;;10.15;3.10;;;;;;;19.21;86.96;100976.38;5059057;28;20032;-53
2023/07/12 06:11:35;;;;;;;5.45;2.60;;;;;;;19.27;85.09;100977.53;5056239;28;20039;-51
2023/07/12 06:14:01;;;;;;;11.20;2.83;;;;;;;19.41;84.38;100980.34;5053654;28;20029;-53
2023/07/12 06:16:26;;;;;;;7.90;3.08;;;;;;;19.43;84.23;100985.56;5060861;28;20481;-51
2023/07/12 06:18:51;;;;;;;8.52;2.83;;;;;;;19.50;83.08;100983.88;5060086;28;20029;-51
2023/07/12 06:21:17;;;;;;;7.20;2.50;;;;;;;19.53;82.70;100982.69;5059444;28;20131;-54
2023/07/12 06:23:42;;;;;;;6.40;2.80;;;;;;;19.51;81.09;100984.72;5058830;28;20030;-51
2023/07/12 06:26:07;;;;;;;8.02;2.78;;;;;;;19.53;82.66;100980.81;5058334;28;20041;-54
2023/07/12 06:28:33;;;;;;;9.18;2.95;;;;;;;19.51;80.92;100988.25;5053884;28;20537;-51
2023/07/12 06:31:01;;;;;;;9.38;2.67;;;;;;;19.60;81.12;100991.75;5061161;28;20486;-52
2023/07/12 06:33:26;;;;;;;6.78;2.97;;;;;;;19.70;81.96;100999.63;5059593;28;20029;-51
2023/07/12 06:35:51;;;;;;;7.43;2.90;;;;;;;19.72;82.26;101003.03;5056012;28;20044;-52
2023/07/12 06:38:17;;;;;;;7.22;2.60;;;;;;;19.72;81.08;101019.19;5063625;28;20394;-51
2023/07/12 06:40:44;;;;;;;10.13;3.45;;;;;;;19.67;80.27;101006.22;5054652;28;20116;-51
2023/07/12 06:43:11;;;;;;;10.40;2.83;;;;;;;19.64;80.50;101020.03;5056628;28;20104;-51
2023/07/12 06:45:37;;;;;;;5.95;2.70;;;;;;;19.61;81.00;101020.38;5056188;28;20041;-51
2023/07/12 06:48:02;;;;;;;7.13;2.90;;;;;;;19.63;81.36;101021.03;5063530;28;20037;-51
2023/07/12 06:50:27;;;;;;;7.00;2.50;;;;;;;19.64;79.45;101021.91;5057978;28;20033;-51
2023/07/12 06:52:53;;;;;;;7.07;2.40;;;;;;;19.62;81.84;101032.84;5053818;28;20021;-52
2023/07/12 06:55:18;;;;;;;7.15;2.42;;;;;;;19.59;79.41;101036.72;5054353;28;20051;-54
2023/07/12 06:57:43;;;;;;;10.52;3.08;;;;;;;19.58;80.45;101026.97;5055237;28;20474;-51
2023/07/12 07:00:10;;;;;;;6.93;2.38;;;;;;;19.55;81.00;101037.22;5055250;28;20033;-48
2023/07/12 07:02:36;;;;;;;9.73;3.00;;;;;;;19.53;79.31;101047.34;5061417;28;20040;-48
2023/07/12 07:05:01;;;;;;;8.05;2.45;;;;;;;19.52;80.20;101051.06;5058686;28;20028;-52
2023/07/12 07:07:28;;;;;;;11.65;2.58;;;;;;;19.55;81.48;101056.09;5058463;28;20032;-49
2023/07/12 07:09:53;;;;;;;9.75;2.95;;;;;;;19.63;79.72;101049.84;5057809;28;20059;-49
2023/07/12 07:12:18;;;;;;;9.05;2.50;;;;;;;19.65;79.39;101050.50;5062608;28;20021;-51
2023/07/12 07:14:44;;;;;;;6.85;2.50;;;;;;;19.66;79.27;101044.97;5062760;28;20027;-50
2023/07/12 07:17:10;;;;;;;13.73;3.00;;;;;;;19.71;79.51;101047.97;5064104;28;20520;-50
2023/07/12 07:19:36;;;;;;;9.07;2.72;;;;;;;19.78;78.74;101051.72;5056739;28;20115;-51
2023/07/12 07:22:01;;;;;;;10.18;2.80;;;;;;;19.81;78.70;101053.19;5058453;28;20039;-50
2023/07/12 07:24:27;;;;;;;9.57;2.83;;;;;;;19.91;79.01;101058.41;5060912;28;20029;-49
2023/07/12 07:26:52;;;;;;;8.32;2.40;;;;;;;19.97;78.33;101065.78;5055254;28;20139;-52
2023/07/12 07:29:17;;;;;;;7.50;2.30;;;;;;;20.02;77.59;101071.50;5061722;28;20439;-50
2023/07/12 07:31:43;;;;;;;8.38;2.40;;;;;;;20.07;78.30;101071.81;5058783;28;20456;-51
2023/07/12 07:34:08;;;;;;;10.32;3.03;;;;;;;19.99;76.79;101071.84;5058509;28;20037;-51
2023/07/12 07:36:33;;;;;;;7.30;2.97;;;;;;;19.98;74.51;101078.25;5060904;28;20032;-52
2023/07/12 07:38:59;;;;;;;6.10;2.63;;;;;;;20.04;75.74;101085.66;5059837;28;20115;-50
2023/07/12 07:41:24;;;;;;;9.00;2.80;;;;;;;20.08;75.09;101078.03;5059524;28;20033;-51
2023/07/12 07:43:49;;;;;;;9.45;3.05;;;;;;;20.08;73.59;101080.75;5062170;28;20136;-50
2023/07/12 07:46:15;;;;;;;7.53;2.60;;;;;;;20.21;73.26;101085.59;5059034;28;20417;-52
2023/07/12 07:48:41;;;;;;;8.30;2.45;;;;;;;20.38;74.93;101083.66;5061967;28;20052;-52
2023/07/12 07:51:08;;;;;;;8.10;2.42;;;;;;;20.59;75.33;101069.56;5062227;28;20071;-52
2023/07/12 07:53:33;;;;;;;8.27;2.42;;;;;;;20.62;73.64;101088.09;5056754;28;20029;-49
2023/07/12 07:55:58;;;;;;;11.10;3.00;;;;;;;20.60;72.82;101088.25;5056803;28;20059;-49
2023/07/12 07:58:24;;;;;;;6.88;2.58;;;;;;;20.65;71.60;101099.41;5056452;28;20464;-49
2023/07/12 08:00:51;;;;;;;9.02;2.70;;;;;;;20.73;71.91;101095.78;5062838;28;20526;-50
2023/07/12 08:03:17;;;;;;;10.57;2.83;;;;;;;20.64;70.26;101099.56;5065316;28;20029;-50
2023/07/12 08:05:44;;;;;;;9.65;2.88;;;;;;;20.71;70.73;101097.84;5057913;28;20020;-51
2023/07/12 08:08:09;;;;;;;10.13;2.72;;;;;;;20.75;70.52;101104.56;5055984;28;20421;-51
2023/07/12 08:10:35;;;;;;;12.93;3.00;;;;;;;20.63;69.82;101096.03;5060210;28;20029;-50
2023/07/12 08:13:01;;;;;;;7.75;2.65;;;;;;;20.60;71.72;101112.56;5056026;28;20021;-53
2023/07/12 08:15:27;;;;;;;9.90;3.13;;;;;;;20.47;70.94;101099.63;5056067;28;20032;-51
2023/07/12 08:17:53;;;;;;;4.78;2.30;;;;;;;20.39;70.30;101110.44;5059812;28;20052;-50
2023/07/12 08:20:19;;;;;;;6.72;2.53;;;;;;;20.34;70.50;101116.38;5059034;28;20059;-50
2023/07/12 08:22:44;;;;;;;6.53;2.30;;;;;;;20.40;71.58;101112.16;5028996;28;20065;-50
2023/07/12 08:25:10;;;;;;;10.13;2.65;;;;;;;20.46;72.02;101124.09;5053473;28;20470;-50
2023/07/12 08:27:36;;;;;;;6.40;2.33;;;;;;;20.40;71.03;101120.25;5056486;28;20119;-53
2023/07/12 08:30:01;;;;;;;6.47;2.67;;;;;;;20.41;72.76;101123.78;5059391;28;20111;-53
2023/07/12 08:32:29;;;;;;;9.57;3.10;;;;;;;20.39;71.11;101123.13;5053237;28;20096;-53
2023/07/12 08:34:55;;;;;;;8.43;3.08;;;;;;;20.34;72.26;101116.38;5060021;28;20039;-52
2023/07/12 08:37:22;;;;;;;11.52;3.10;;;;;;;20.42;72.03;101118.19;5062891;28;20474;-51
2023/07/12 08:39:47;;;;;;;7.63;2.45;;;;;;;20.56;71.71;101119.31;5058273;28;20453;-53
2023/07/12 08:42:21;;;;;;;12.23;3.17;;;;;;;20.66;71.53;101127.22;5058837;28;20052;-50
2023/07/12 08:44:47;;;;;;;7.45;2.70;;;;;;;20.69;70.51;101127.69;5062075;28;20033;-50
2023/07/12 08:47:38;;;;;;;11.65;3.47;;;;;;;20.77;71.39;101132.22;5065769;28;20104;-51
2023/07/12 08:50:13;;;;;;;9.80;2.88;;;;;;;20.73;70.68;101130.03;5066078;28;20041;-50
2023/07/12 08:52:40;;;;;;;8.00;2.92;;;;;;;20.73;69.75;101135.44;5063852;28;20056;-51
2023/07/12 08:55:12;;;;;;;7.75;3.15;;;;;;;20.64;70.09;101131.97;5070422;28;20036;-50
2023/07/12 08:57:38;;;;;;;9.38;3.15;;;;;;;20.72;70.20;101140.00;5061767;28;20041;-51
2023/07/12 09:00:16;;;;;;;7.28;3.10;;;;;;;20.76;70.55;101144.03;5056720;28;20048;-50
2023/07/12 09:02:42;;;;;;;9.43;3.40;;;;;;;20.75;69.69;101141.50;5063571;28;20044;-50
2023/07/12 09:05:22;;;;;;;8.77;3.05;;;;;;;20.77;69.53;101137.63;5060159;28;20033;-51
2023/07/12 09:07:59;;;;;;;6.90;2.97;;;;;;;20.82;68.33;101137.94;5063397;28;20036;-50
2023/07/12 09:10:39;;;;;;;10.80;3.10;;;;;;;21.04;69.22;101133.56;5061321;28;20033;-53
2023/07/12 09:13:06;;;;;;;6.65;2.65;;;;;;;21.19;68.95;101135.50;5059967;28;20021;-50
2023/07/12 09:15:36;;;;;;;9.52;2.70;;;;;;;21.28;66.64;101130.84;5060441;28;20017;-50
2023/07/12 09:18:06;;;;;;;10.57;2.78;;;;;;;21.37;67.53;101135.19;5064277;28;20076;-51
2023/07/12 09:20:37;;;;;;;8.20;2.55;;;;;;;21.46;66.12;101119.72;5063235;28;20044;-50
2023/07/12 09:23:02;;;;;;;5.85;2.90;;;;;;;21.59;64.07;101123.50;5062729;28;20504;-50
2023/07/12 09:25:36;;;;;;;9.88;3.15;;;;;;;21.87;64.70;101124.78;5057766;28;20089;-50
2023/07/12 09:28:01;;;;;;;7.38;3.13;;;;;;;22.09;63.92;101128.41;5060022;28;20031;-51
2023/07/12 09:30:29;;;;;;;7.75;2.75;;;;;;;22.13;63.01;101127.00;5036127;28;20354;-53
2023/07/12 09:32:56;;;;;;;7.87;2.70;;;;;;;22.18;62.93;101138.09;5062271;28;20045;-51
2023/07/12 09:35:32;;;;;;;9.48;2.88;;;;;;;22.48;63.71;101128.16;5061354;28;20274;-51
2023/07/12 09:38:00;;;;;;;7.18;2.70;;;;;;;22.47;63.39;101112.94;5060788;28;20032;-49
2023/07/12 09:40:29;;;;;;;7.88;3.22;;;;;;;22.51;61.98;101121.50;5058774;28;20017;-49
2023/07/12 09:42:57;;;;;;;7.88;2.75;;;;;;;22.57;61.35;101123.47;5061721;28;20021;-49
2023/07/12 09:45:24;;;;;;;;;;;;;;;22.83;63.72;101124.78;5063262;28;20024;-49
2023/07/12 09:47:56;;;;;;;6.90;2.33;;;;;;;23.32;62.32;101115.09;5068307;28;20322;-49
2023/07/12 09:50:30;;;;;;;8.10;2.58;;;;;;;23.81;59.38;101112.34;5056746;28;20125;-51
2023/07/12 09:53:02;;;;;;;6.22;2.80;;;;;;;24.16;57.62;101111.50;5059158;28;20174;-49
2023/07/12 09:55:38;;;;;;;9.13;2.13;;;;;;;24.13;54.84;101112.78;5063893;28;20060;-50
2023/07/12 09:58:06;;;;;;;8.18;2.42;;;;;;;24.24;55.46;101105.91;5057616;28;20037;-51
2023/07/12 10:00:40;;;;;;;9.30;2.50;;;;;;;24.24;54.15;101097.78;5057568;28;20443;-49
2023/07/12 10:03:38;;;;;;;7.13;2.35;;;;;;;24.41;57.37;101098.25;5062224;28;20505;-50
2023/07/12 10:06:30;;;;;;;7.03;2.03;;;;;;;24.76;56.18;101090.03;5063622;28;20044;-50
2023/07/12 10:09:20;;;;;;;7.30;2.50;;;;;;;24.94;55.53;101087.56;5060982;28;20049;-50
2023/07/12 10:12:26;;;;;;;7.50;2.25;;;;;;;25.05;54.63;101088.84;5062386;28;20017;-50
2023/07/12 10:14:53;;;;;;;6.80;2.10;;;;;;;24.88;52.87;101099.28;5062820;28;20095;-51
2023/07/12 10:17:30;;;;;;;7.32;2.20;;;;;;;25.00;53.63;101085.09;5061566;28;20504;-49
2023/07/12 10:19:56;;;;;;;6.68;2.13;;;;;;;24.86;51.81;101097.78;5061874;28;20029;-50
2023/07/12 10:22:35;;;;;;;8.05;1.83;;;;;;;25.14;51.71;101088.66;5064467;28;20385;-50
2023/07/12 10:25:06;;;;;;;7.55;2.05;;;;;;;25.53;51.68;101090.56;5061609;28;20039;-49
2023/07/12 10:27:37;;;;;;;7.45;2.25;;;;;;;25.90;50.11;101085.47;5059669;28;20048;-51
2023/07/12 10:30:17;;;;;;;4.95;1.95;;;;;;;25.95;51.57;101099.28;5062763;28;20513;-51
2023/07/12 10:32:52;;;;;;;9.38;2.15;;;;;;;26.08;50.93;101094.84;5055690;28;20501;-49
2023/07/12 10:35:21;;;;;;;9.63;1.88;;;;;;;26.18;48.58;101104.25;5059163;28;20067;-52
2023/07/12 10:37:58;;;;;;;4.38;1.52;;;;;;;26.63;49.01;101095.28;5059321;28;20354;-50
2023/07/12 10:40:29;;;;;;;4.60;1.73;;;;;;;27.02;48.72;101104.25;5061898;28;20382;-50
2023/07/12 10:42:59;;;;;;;5.93;2.00;;;;;;;27.36;48.00;101104.84;5058896;28;20036;-49
2023/07/12 10:45:31;;;;;;;10.85;2.00;;;;;;;27.77;46.99;101095.22;5062006;28;20045;-49
2023/07/12 10:47:58;;;;;;;7.78;1.95;;;;;;;27.85;43.22;101091.38;5061323;28;20029;-49
2023/07/12 10:50:32;;;;;;;7.93;2.10;;;;;;;27.93;44.55;101101.19;5058688;28;20070;-49
2023/07/12 10:53:21;;;;;;;4.82;1.88;;;;;;;27.86;43.57;101098.50;5055798;28;20421;-49
2023/07/12 10:56:13;;;;;;;9.80;1.85;;;;;;;27.88;46.14;101094.50;5061289;28;20478;-50
2023/07/12 10:58:49;;;;;;;7.05;2.05;;;;;;;27.92;46.06;101102.22;5052746;28;20058;-49
2023/07/12 11:01:33;;;;;;;8.60;2.00;;;;;;;28.13;45.46;101099.06;5059512;28;20059;-50
2023/07/12 11:04:25;;;;;;;5.18;1.70;;;;;;;28.27;44.18;101093.44;5058275;28;20127;-49
2023/07/12 11:06:55;;;;;;;4.80;1.80;;;;;;;28.13;41.62;101104.53;5058953;28;20037;-49
2023/07/12 11:09:22;;;;;;;4.55;1.55;;;;;;;27.67;41.01;101106.66;5057210;28;20028;-49
2023/07/12 11:11:58;;;;;;;8.77;2.15;;;;;;;27.50;42.85;101102.84;5032102;28;20059;-50
2023/07/12 11:14:46;;;;;;;9.43;2.00;;;;;;;27.77;44.49;101097.97;5060599;28;20033;-50
2023/07/12 11:17:20;;;;;;;6.18;1.85;;;;;;;27.85;42.39;101096.84;5054970;28;20075;-49
2023/07/12 11:20:01;;;;;;;5.68;1.70;;;;;;;27.71;41.97;101100.75;5063311;28;20060;-51
2023/07/12 11:22:47;;;;;;;5.68;1.80;;;;;;;28.05;44.03;101097.47;5058631;28;20043;-50
2023/07/12 11:25:57;;;;;;;4.95;2.05;;;;;;;28.37;43.34;101093.72;5056592;28;20154;-49
2023/07/12 11:28:23;;;;;;;6.22;1.65;;;;;;;28.66;41.35;101091.28;5056946;28;21143;-50
2023/07/12 11:31:24;;;;;;;6.40;1.83;;;;;;;28.65;41.19;101097.81;5052854;28;20024;-50